Location Sebastian, FL, US

ob KFLSEBAS1 232140Z AUTO 17003G17KT BKN060 24/19 A3012 RMK SLPNO 

2019.01.23 2140 UTC
Wind from the S (171 degrees) at 4.0 MPH (3 KT) gusting to 20.0 MPH (17 KT)
Visibility    Mile(s)
Sky Conditions  mostly cloudy
Temperature 75.40 F (24 C)
Dew Point 66.93 F (19 C)
Relative Humidity 75%
Pressure   30.12 in. Hg (1020 hPa)
Rain  0.00 in.
Daily Rain  in.

Station Name  Memory Makers, Inc.
Longitude, Latitude  -80.48, 27.8
Elevation 23
Station URL www.kflsebas1.com
Software Type VWS V15.00